sensor_id;sensor_type;location;lat;lon;timestamp;P1;durP1;ratioP1;P2;durP2;ratioP2
32292;SDS011;43233;48.608;8.838;2023-02-26T00:01:13;3.73;;;3.37;;
32292;SDS011;43233;48.608;8.838;2023-02-26T00:03:41;3.27;;;2.97;;
32292;SDS011;43233;48.608;8.838;2023-02-26T00:06:07;3.13;;;2.90;;
32292;SDS011;43233;48.608;8.838;2023-02-26T00:08:33;4.20;;;3.43;;
32292;SDS011;43233;48.608;8.838;2023-02-26T00:10:59;3.40;;;3.20;;
32292;SDS011;43233;48.608;8.838;2023-02-26T00:13:28;3.23;;;3.00;;
32292;SDS011;43233;48.608;8.838;2023-02-26T00:15:57;3.50;;;3.03;;
32292;SDS011;43233;48.608;8.838;2023-02-26T00:18:24;8.90;;;3.90;;
32292;SDS011;43233;48.608;8.838;2023-02-26T00:20:50;3.80;;;3.50;;
32292;SDS011;43233;48.608;8.838;2023-02-26T00:23:17;3.43;;;3.13;;
32292;SDS011;43233;48.608;8.838;2023-02-26T00:25:43;6.57;;;4.07;;
32292;SDS011;43233;48.608;8.838;2023-02-26T00:28:09;5.73;;;3.03;;
32292;SDS011;43233;48.608;8.838;2023-02-26T00:30:35;7.10;;;2.97;;
32292;SDS011;43233;48.608;8.838;2023-02-26T00:33:02;4.60;;;3.00;;
32292;SDS011;43233;48.608;8.838;2023-02-26T00:35:29;3.87;;;3.47;;
32292;SDS011;43233;48.608;8.838;2023-02-26T00:37:57;4.30;;;3.20;;
32292;SDS011;43233;48.608;8.838;2023-02-26T00:48:21;2.80;;;2.50;;
32292;SDS011;43233;48.608;8.838;2023-02-26T00:51:18;4.20;;;3.43;;
32292;SDS011;43233;48.608;8.838;2023-02-26T00:54:16;2.83;;;2.30;;
32292;SDS011;43233;48.608;8.838;2023-02-26T00:56:41;6.00;;;3.20;;
32292;SDS011;43233;48.608;8.838;2023-02-26T00:59:06;3.27;;;2.97;;
32292;SDS011;43233;48.608;8.838;2023-02-26T01:01:32;4.37;;;3.00;;
32292;SDS011;43233;48.608;8.838;2023-02-26T01:03:58;6.33;;;3.27;;
32292;SDS011;43233;48.608;8.838;2023-02-26T01:06:24;2.63;;;2.53;;
32292;SDS011;43233;48.608;8.838;2023-02-26T01:11:34;3.13;;;2.93;;
32292;SDS011;43233;48.608;8.838;2023-02-26T01:14:00;3.03;;;2.83;;
32292;SDS011;43233;48.608;8.838;2023-02-26T01:16:27;4.20;;;3.00;;
32292;SDS011;43233;48.608;8.838;2023-02-26T01:19:02;4.83;;;3.43;;
32292;SDS011;43233;48.608;8.838;2023-02-26T01:21:37;4.03;;;3.27;;
32292;SDS011;43233;48.608;8.838;2023-02-26T01:24:10;7.60;;;3.43;;
32292;SDS011;43233;48.608;8.838;2023-02-26T01:26:39;11.20;;;2.77;;
32292;SDS011;43233;48.608;8.838;2023-02-26T01:29:05;3.20;;;3.00;;
32292;SDS011;43233;48.608;8.838;2023-02-26T01:31:38;3.33;;;3.13;;
32292;SDS011;43233;48.608;8.838;2023-02-26T01:36:39;9.70;;;3.43;;
32292;SDS011;43233;48.608;8.838;2023-02-26T01:41:57;3.40;;;3.10;;
32292;SDS011;43233;48.608;8.838;2023-02-26T01:44:39;4.87;;;3.17;;
32292;SDS011;43233;48.608;8.838;2023-02-26T01:47:28;3.27;;;3.07;;
32292;SDS011;43233;48.608;8.838;2023-02-26T01:50:12;3.13;;;3.03;;
32292;SDS011;43233;48.608;8.838;2023-02-26T01:55:12;3.80;;;3.50;;
32292;SDS011;43233;48.608;8.838;2023-02-26T01:57:40;3.40;;;3.10;;
32292;SDS011;43233;48.608;8.838;2023-02-26T02:00:06;3.30;;;3.10;;
32292;SDS011;43233;48.608;8.838;2023-02-26T02:02:32;5.70;;;3.43;;
32292;SDS011;43233;48.608;8.838;2023-02-26T02:05:00;5.07;;;3.23;;
32292;SDS011;43233;48.608;8.838;2023-02-26T02:07:31;3.90;;;3.37;;
32292;SDS011;43233;48.608;8.838;2023-02-26T02:09:56;3.23;;;3.00;;
32292;SDS011;43233;48.608;8.838;2023-02-26T02:18:21;6.53;;;3.20;;
32292;SDS011;43233;48.608;8.838;2023-02-26T02:32:38;3.40;;;2.80;;
32292;SDS011;43233;48.608;8.838;2023-02-26T02:35:17;3.53;;;3.23;;
32292;SDS011;43233;48.608;8.838;2023-02-26T02:40:28;4.43;;;4.10;;
32292;SDS011;43233;48.608;8.838;2023-02-26T02:42:59;3.53;;;3.23;;
32292;SDS011;43233;48.608;8.838;2023-02-26T02:45:36;3.33;;;2.83;;
32292;SDS011;43233;48.608;8.838;2023-02-26T02:48:04;3.53;;;3.20;;
32292;SDS011;43233;48.608;8.838;2023-02-26T02:50:37;3.30;;;3.00;;
32292;SDS011;43233;48.608;8.838;2023-02-26T02:53:13;4.83;;;3.10;;
32292;SDS011;43233;48.608;8.838;2023-02-26T02:55:53;5.83;;;3.50;;
32292;SDS011;43233;48.608;8.838;2023-02-26T02:58:29;3.37;;;3.07;;
32292;SDS011;43233;48.608;8.838;2023-02-26T03:00:59;4.40;;;3.00;;
32292;SDS011;43233;48.608;8.838;2023-02-26T03:06:16;3.13;;;2.93;;
32292;SDS011;43233;48.608;8.838;2023-02-26T03:08:41;2.80;;;2.70;;
32292;SDS011;43233;48.608;8.838;2023-02-26T03:11:09;3.77;;;3.47;;
32292;SDS011;43233;48.608;8.838;2023-02-26T03:13:35;5.00;;;3.83;;
32292;SDS011;43233;48.608;8.838;2023-02-26T03:16:16;3.53;;;3.00;;
32292;SDS011;43233;48.608;8.838;2023-02-26T03:24:18;6.03;;;3.47;;
32292;SDS011;43233;48.608;8.838;2023-02-26T03:27:06;5.13;;;3.00;;
32292;SDS011;43233;48.608;8.838;2023-02-26T03:29:49;4.63;;;3.10;;
32292;SDS011;43233;48.608;8.838;2023-02-26T03:32:25;3.30;;;3.20;;
32292;SDS011;43233;48.608;8.838;2023-02-26T03:37:44;7.00;;;4.07;;
32292;SDS011;43233;48.608;8.838;2023-02-26T03:40:48;3.17;;;2.80;;
32292;SDS011;43233;48.608;8.838;2023-02-26T03:45:41;3.80;;;3.50;;
32292;SDS011;43233;48.608;8.838;2023-02-26T03:48:10;6.70;;;3.63;;
32292;SDS011;43233;48.608;8.838;2023-02-26T03:50:45;3.77;;;3.40;;
32292;SDS011;43233;48.608;8.838;2023-02-26T03:53:18;3.73;;;3.50;;
32292;SDS011;43233;48.608;8.838;2023-02-26T03:55:59;3.40;;;3.20;;
32292;SDS011;43233;48.608;8.838;2023-02-26T03:58:31;3.87;;;3.57;;
32292;SDS011;43233;48.608;8.838;2023-02-26T04:00:58;4.23;;;3.00;;
32292;SDS011;43233;48.608;8.838;2023-02-26T04:03:32;3.50;;;3.20;;
32292;SDS011;43233;48.608;8.838;2023-02-26T04:06:07;3.93;;;3.63;;
32292;SDS011;43233;48.608;8.838;2023-02-26T04:08:33;6.80;;;3.53;;
32292;SDS011;43233;48.608;8.838;2023-02-26T04:13:33;3.30;;;3.10;;
32292;SDS011;43233;48.608;8.838;2023-02-26T04:15:59;3.40;;;3.10;;
32292;SDS011;43233;48.608;8.838;2023-02-26T04:18:25;5.67;;;3.50;;
32292;SDS011;43233;48.608;8.838;2023-02-26T04:20:50;4.33;;;3.93;;
32292;SDS011;43233;48.608;8.838;2023-02-26T04:23:16;3.30;;;3.00;;
32292;SDS011;43233;48.608;8.838;2023-02-26T04:25:43;3.60;;;3.40;;
32292;SDS011;43233;48.608;8.838;2023-02-26T04:28:09;3.90;;;3.40;;
32292;SDS011;43233;48.608;8.838;2023-02-26T04:30:34;4.50;;;3.80;;
32292;SDS011;43233;48.608;8.838;2023-02-26T04:33:00;3.70;;;3.20;;
32292;SDS011;43233;48.608;8.838;2023-02-26T04:35:26;4.40;;;4.00;;
32292;SDS011;43233;48.608;8.838;2023-02-26T04:37:51;3.40;;;3.10;;
32292;SDS011;43233;48.608;8.838;2023-02-26T04:40:17;3.63;;;3.03;;
32292;SDS011;43233;48.608;8.838;2023-02-26T04:42:43;5.70;;;3.43;;
32292;SDS011;43233;48.608;8.838;2023-02-26T04:45:09;11.73;;;4.00;;
32292;SDS011;43233;48.608;8.838;2023-02-26T04:47:34;5.83;;;3.70;;
32292;SDS011;43233;48.608;8.838;2023-02-26T04:50:00;3.37;;;3.13;;
32292;SDS011;43233;48.608;8.838;2023-02-26T04:52:26;4.10;;;3.43;;
32292;SDS011;43233;48.608;8.838;2023-02-26T04:54:52;6.93;;;3.87;;
32292;SDS011;43233;48.608;8.838;2023-02-26T04:57:17;4.47;;;3.87;;
32292;SDS011;43233;48.608;8.838;2023-02-26T04:59:43;4.70;;;3.60;;
32292;SDS011;43233;48.608;8.838;2023-02-26T05:02:08;4.47;;;3.97;;
32292;SDS011;43233;48.608;8.838;2023-02-26T05:04:34;12.03;;;4.30;;
32292;SDS011;43233;48.608;8.838;2023-02-26T05:07:00;5.10;;;3.80;;
32292;SDS011;43233;48.608;8.838;2023-02-26T05:09:25;4.00;;;3.70;;
32292;SDS011;43233;48.608;8.838;2023-02-26T05:11:51;5.37;;;4.00;;
32292;SDS011;43233;48.608;8.838;2023-02-26T05:14:17;4.17;;;3.87;;
32292;SDS011;43233;48.608;8.838;2023-02-26T05:16:42;5.50;;;3.60;;
32292;SDS011;43233;48.608;8.838;2023-02-26T05:19:08;3.73;;;3.43;;
32292;SDS011;43233;48.608;8.838;2023-02-26T05:21:34;4.00;;;3.70;;
32292;SDS011;43233;48.608;8.838;2023-02-26T05:23:59;4.80;;;3.80;;
32292;SDS011;43233;48.608;8.838;2023-02-26T05:26:25;4.73;;;4.30;;
32292;SDS011;43233;48.608;8.838;2023-02-26T05:28:51;6.33;;;4.20;;
32292;SDS011;43233;48.608;8.838;2023-02-26T05:31:16;13.50;;;4.00;;
32292;SDS011;43233;48.608;8.838;2023-02-26T05:33:42;5.53;;;3.33;;
32292;SDS011;43233;48.608;8.838;2023-02-26T05:36:08;4.07;;;3.77;;
32292;SDS011;43233;48.608;8.838;2023-02-26T05:38:34;6.77;;;4.27;;
32292;SDS011;43233;48.608;8.838;2023-02-26T05:41:00;3.83;;;3.43;;
32292;SDS011;43233;48.608;8.838;2023-02-26T05:43:26;3.97;;;3.40;;
32292;SDS011;43233;48.608;8.838;2023-02-26T05:45:52;7.77;;;3.37;;
32292;SDS011;43233;48.608;8.838;2023-02-26T05:48:19;3.87;;;3.50;;
32292;SDS011;43233;48.608;8.838;2023-02-26T05:50:46;4.83;;;3.67;;
32292;SDS011;43233;48.608;8.838;2023-02-26T05:53:12;3.37;;;3.07;;
32292;SDS011;43233;48.608;8.838;2023-02-26T05:55:38;5.70;;;3.60;;
32292;SDS011;43233;48.608;8.838;2023-02-26T05:58:03;7.80;;;4.63;;
32292;SDS011;43233;48.608;8.838;2023-02-26T06:00:29;4.13;;;3.80;;
32292;SDS011;43233;48.608;8.838;2023-02-26T06:02:55;4.90;;;4.00;;
32292;SDS011;43233;48.608;8.838;2023-02-26T06:05:20;3.83;;;3.40;;
32292;SDS011;43233;48.608;8.838;2023-02-26T06:07:46;4.70;;;4.23;;
32292;SDS011;43233;48.608;8.838;2023-02-26T06:10:11;4.13;;;3.73;;
32292;SDS011;43233;48.608;8.838;2023-02-26T06:12:37;4.07;;;3.73;;
32292;SDS011;43233;48.608;8.838;2023-02-26T06:15:04;4.50;;;4.10;;
32292;SDS011;43233;48.608;8.838;2023-02-26T06:17:31;4.87;;;4.13;;
32292;SDS011;43233;48.608;8.838;2023-02-26T06:19:57;6.13;;;4.17;;
32292;SDS011;43233;48.608;8.838;2023-02-26T06:22:23;4.57;;;3.70;;
32292;SDS011;43233;48.608;8.838;2023-02-26T06:24:49;4.40;;;4.00;;
32292;SDS011;43233;48.608;8.838;2023-02-26T06:27:14;4.57;;;4.00;;
32292;SDS011;43233;48.608;8.838;2023-02-26T06:29:40;4.07;;;3.80;;
32292;SDS011;43233;48.608;8.838;2023-02-26T06:32:06;6.30;;;5.10;;
32292;SDS011;43233;48.608;8.838;2023-02-26T06:34:32;6.07;;;5.10;;
32292;SDS011;43233;48.608;8.838;2023-02-26T06:36:58;11.50;;;6.60;;
32292;SDS011;43233;48.608;8.838;2023-02-26T06:39:23;10.60;;;6.50;;
32292;SDS011;43233;48.608;8.838;2023-02-26T06:41:49;12.37;;;5.90;;
32292;SDS011;43233;48.608;8.838;2023-02-26T06:44:14;5.93;;;4.83;;
32292;SDS011;43233;48.608;8.838;2023-02-26T06:46:40;4.83;;;4.40;;
32292;SDS011;43233;48.608;8.838;2023-02-26T06:49:06;7.73;;;6.13;;
32292;SDS011;43233;48.608;8.838;2023-02-26T06:51:32;10.73;;;6.63;;
32292;SDS011;43233;48.608;8.838;2023-02-26T06:53:57;9.80;;;7.10;;
32292;SDS011;43233;48.608;8.838;2023-02-26T06:56:23;6.30;;;5.70;;
32292;SDS011;43233;48.608;8.838;2023-02-26T06:58:49;7.47;;;5.67;;
32292;SDS011;43233;48.608;8.838;2023-02-26T07:01:15;8.30;;;5.80;;
32292;SDS011;43233;48.608;8.838;2023-02-26T07:03:41;5.97;;;5.37;;
32292;SDS011;43233;48.608;8.838;2023-02-26T07:06:07;10.67;;;6.60;;
32292;SDS011;43233;48.608;8.838;2023-02-26T07:08:35;10.50;;;6.93;;
32292;SDS011;43233;48.608;8.838;2023-02-26T07:11:00;7.93;;;5.53;;
32292;SDS011;43233;48.608;8.838;2023-02-26T07:13:26;8.03;;;5.07;;
32292;SDS011;43233;48.608;8.838;2023-02-26T07:15:52;17.23;;;7.60;;
32292;SDS011;43233;48.608;8.838;2023-02-26T07:18:18;13.63;;;6.73;;
32292;SDS011;43233;48.608;8.838;2023-02-26T07:20:43;18.10;;;7.00;;
32292;SDS011;43233;48.608;8.838;2023-02-26T07:23:09;6.47;;;5.43;;
32292;SDS011;43233;48.608;8.838;2023-02-26T07:25:36;5.20;;;4.70;;
32292;SDS011;43233;48.608;8.838;2023-02-26T07:28:02;6.23;;;4.47;;
32292;SDS011;43233;48.608;8.838;2023-02-26T07:30:28;4.83;;;4.10;;
32292;SDS011;43233;48.608;8.838;2023-02-26T07:32:55;6.80;;;4.80;;
32292;SDS011;43233;48.608;8.838;2023-02-26T07:35:21;4.67;;;4.30;;
32292;SDS011;43233;48.608;8.838;2023-02-26T07:37:46;6.10;;;4.80;;
32292;SDS011;43233;48.608;8.838;2023-02-26T07:40:12;6.17;;;5.43;;
32292;SDS011;43233;48.608;8.838;2023-02-26T07:42:37;28.17;;;14.17;;
32292;SDS011;43233;48.608;8.838;2023-02-26T07:45:03;12.10;;;6.60;;
32292;SDS011;43233;48.608;8.838;2023-02-26T07:47:31;4.17;;;3.80;;
32292;SDS011;43233;48.608;8.838;2023-02-26T07:49:56;8.13;;;5.27;;
32292;SDS011;43233;48.608;8.838;2023-02-26T07:52:22;4.40;;;4.00;;
32292;SDS011;43233;48.608;8.838;2023-02-26T07:54:48;13.30;;;4.87;;
32292;SDS011;43233;48.608;8.838;2023-02-26T07:57:13;7.23;;;3.67;;
32292;SDS011;43233;48.608;8.838;2023-02-26T07:59:39;5.63;;;4.83;;
32292;SDS011;43233;48.608;8.838;2023-02-26T08:02:04;13.07;;;4.13;;
32292;SDS011;43233;48.608;8.838;2023-02-26T08:04:30;3.93;;;3.63;;
32292;SDS011;43233;48.608;8.838;2023-02-26T08:06:57;3.20;;;2.90;;
32292;SDS011;43233;48.608;8.838;2023-02-26T08:09:26;3.57;;;3.20;;
32292;SDS011;43233;48.608;8.838;2023-02-26T08:11:51;5.17;;;3.73;;
32292;SDS011;43233;48.608;8.838;2023-02-26T08:14:17;5.80;;;3.47;;
32292;SDS011;43233;48.608;8.838;2023-02-26T08:16:43;5.40;;;3.83;;
32292;SDS011;43233;48.608;8.838;2023-02-26T08:19:08;4.40;;;3.40;;
32292;SDS011;43233;48.608;8.838;2023-02-26T08:21:34;3.47;;;3.20;;
32292;SDS011;43233;48.608;8.838;2023-02-26T08:24:00;5.10;;;3.83;;
32292;SDS011;43233;48.608;8.838;2023-02-26T08:26:25;8.13;;;4.50;;
32292;SDS011;43233;48.608;8.838;2023-02-26T08:28:51;20.37;;;7.47;;
32292;SDS011;43233;48.608;8.838;2023-02-26T08:31:17;6.13;;;3.90;;
32292;SDS011;43233;48.608;8.838;2023-02-26T08:33:43;6.50;;;4.07;;
32292;SDS011;43233;48.608;8.838;2023-02-26T08:36:09;4.17;;;3.87;;
32292;SDS011;43233;48.608;8.838;2023-02-26T08:38:35;3.90;;;3.60;;
32292;SDS011;43233;48.608;8.838;2023-02-26T08:41:01;4.97;;;3.77;;
32292;SDS011;43233;48.608;8.838;2023-02-26T08:43:27;6.27;;;4.63;;
32292;SDS011;43233;48.608;8.838;2023-02-26T08:45:54;6.70;;;5.97;;
32292;SDS011;43233;48.608;8.838;2023-02-26T08:48:21;3.70;;;3.47;;
32292;SDS011;43233;48.608;8.838;2023-02-26T08:50:47;5.97;;;5.40;;
32292;SDS011;43233;48.608;8.838;2023-02-26T08:53:13;9.00;;;5.10;;
32292;SDS011;43233;48.608;8.838;2023-02-26T08:55:39;4.00;;;3.60;;
32292;SDS011;43233;48.608;8.838;2023-02-26T08:58:05;3.47;;;3.03;;
32292;SDS011;43233;48.608;8.838;2023-02-26T09:00:31;4.33;;;3.93;;
32292;SDS011;43233;48.608;8.838;2023-02-26T09:02:57;6.37;;;4.07;;
32292;SDS011;43233;48.608;8.838;2023-02-26T09:05:23;5.37;;;4.83;;
32292;SDS011;43233;48.608;8.838;2023-02-26T09:07:48;5.77;;;3.63;;
32292;SDS011;43233;48.608;8.838;2023-02-26T09:10:14;6.73;;;3.53;;
32292;SDS011;43233;48.608;8.838;2023-02-26T09:12:40;8.23;;;5.10;;
32292;SDS011;43233;48.608;8.838;2023-02-26T09:15:06;4.37;;;4.07;;
32292;SDS011;43233;48.608;8.838;2023-02-26T09:17:33;4.27;;;3.87;;
32292;SDS011;43233;48.608;8.838;2023-02-26T09:19:59;3.80;;;3.60;;
32292;SDS011;43233;48.608;8.838;2023-02-26T09:22:25;3.80;;;3.40;;
32292;SDS011;43233;48.608;8.838;2023-02-26T09:24:50;3.63;;;3.33;;
32292;SDS011;43233;48.608;8.838;2023-02-26T09:27:16;4.33;;;3.93;;
32292;SDS011;43233;48.608;8.838;2023-02-26T09:29:42;4.27;;;3.87;;
32292;SDS011;43233;48.608;8.838;2023-02-26T09:32:08;4.97;;;4.47;;
32292;SDS011;43233;48.608;8.838;2023-02-26T09:34:34;12.57;;;6.77;;
32292;SDS011;43233;48.608;8.838;2023-02-26T09:37:00;5.80;;;4.10;;
32292;SDS011;43233;48.608;8.838;2023-02-26T09:39:27;4.00;;;3.33;;
32292;SDS011;43233;48.608;8.838;2023-02-26T09:41:53;3.70;;;3.30;;
32292;SDS011;43233;48.608;8.838;2023-02-26T09:47:01;5.83;;;3.67;;
32292;SDS011;43233;48.608;8.838;2023-02-26T09:52:12;4.33;;;3.40;;
32292;SDS011;43233;48.608;8.838;2023-02-26T09:54:42;9.47;;;5.37;;
32292;SDS011;43233;48.608;8.838;2023-02-26T09:57:14;4.93;;;3.73;;
32292;SDS011;43233;48.608;8.838;2023-02-26T09:59:51;6.97;;;4.93;;
32292;SDS011;43233;48.608;8.838;2023-02-26T10:02:21;4.30;;;3.77;;
32292;SDS011;43233;48.608;8.838;2023-02-26T10:05:03;9.43;;;4.50;;
32292;SDS011;43233;48.608;8.838;2023-02-26T10:10:26;2.97;;;2.80;;
32292;SDS011;43233;48.608;8.838;2023-02-26T10:13:32;6.53;;;4.10;;
32292;SDS011;43233;48.608;8.838;2023-02-26T10:16:17;5.67;;;3.87;;
32292;SDS011;43233;48.608;8.838;2023-02-26T10:18:52;6.23;;;3.57;;
32292;SDS011;43233;48.608;8.838;2023-02-26T10:21:47;4.07;;;3.77;;
32292;SDS011;43233;48.608;8.838;2023-02-26T10:24:23;4.07;;;3.73;;
32292;SDS011;43233;48.608;8.838;2023-02-26T10:26:57;6.27;;;3.63;;
32292;SDS011;43233;48.608;8.838;2023-02-26T10:29:44;4.87;;;3.57;;
32292;SDS011;43233;48.608;8.838;2023-02-26T10:32:25;6.17;;;3.30;;
32292;SDS011;43233;48.608;8.838;2023-02-26T10:37:38;3.63;;;3.43;;
32292;SDS011;43233;48.608;8.838;2023-02-26T10:40:31;4.87;;;4.40;;
32292;SDS011;43233;48.608;8.838;2023-02-26T10:43:17;8.00;;;3.60;;
32292;SDS011;43233;48.608;8.838;2023-02-26T10:51:17;4.10;;;3.70;;
32292;SDS011;43233;48.608;8.838;2023-02-26T10:53:45;3.93;;;3.50;;
32292;SDS011;43233;48.608;8.838;2023-02-26T10:56:16;3.43;;;3.30;;
32292;SDS011;43233;48.608;8.838;2023-02-26T10:58:47;3.43;;;3.10;;
32292;SDS011;43233;48.608;8.838;2023-02-26T11:01:16;3.10;;;2.87;;
32292;SDS011;43233;48.608;8.838;2023-02-26T11:03:44;3.73;;;3.50;;
32292;SDS011;43233;48.608;8.838;2023-02-26T11:06:31;3.70;;;3.50;;
32292;SDS011;43233;48.608;8.838;2023-02-26T11:08:59;3.70;;;3.40;;
32292;SDS011;43233;48.608;8.838;2023-02-26T11:14:04;4.03;;;3.63;;
32292;SDS011;43233;48.608;8.838;2023-02-26T11:16:30;3.10;;;2.87;;
32292;SDS011;43233;48.608;8.838;2023-02-26T11:18:57;6.00;;;3.77;;
32292;SDS011;43233;48.608;8.838;2023-02-26T11:21:35;3.80;;;3.50;;
32292;SDS011;43233;48.608;8.838;2023-02-26T11:24:06;3.70;;;3.43;;
32292;SDS011;43233;48.608;8.838;2023-02-26T11:26:35;4.00;;;3.80;;
32292;SDS011;43233;48.608;8.838;2023-02-26T11:29:03;5.50;;;3.73;;
32292;SDS011;43233;48.608;8.838;2023-02-26T11:31:29;3.80;;;3.60;;
32292;SDS011;43233;48.608;8.838;2023-02-26T11:34:01;3.03;;;2.80;;
32292;SDS011;43233;48.608;8.838;2023-02-26T11:36:29;5.90;;;4.33;;
32292;SDS011;43233;48.608;8.838;2023-02-26T11:38:59;4.70;;;4.30;;
32292;SDS011;43233;48.608;8.838;2023-02-26T11:41:28;4.67;;;4.27;;
32292;SDS011;43233;48.608;8.838;2023-02-26T11:44:04;4.07;;;3.73;;
32292;SDS011;43233;48.608;8.838;2023-02-26T11:46:42;4.27;;;3.87;;
32292;SDS011;43233;48.608;8.838;2023-02-26T11:49:15;4.13;;;3.80;;
32292;SDS011;43233;48.608;8.838;2023-02-26T11:51:44;12.17;;;4.10;;
32292;SDS011;43233;48.608;8.838;2023-02-26T11:54:21;4.40;;;3.70;;
32292;SDS011;43233;48.608;8.838;2023-02-26T11:56:48;3.67;;;3.10;;
32292;SDS011;43233;48.608;8.838;2023-02-26T11:59:21;3.73;;;3.43;;
32292;SDS011;43233;48.608;8.838;2023-02-26T12:01:49;5.70;;;3.80;;
32292;SDS011;43233;48.608;8.838;2023-02-26T12:04:23;7.00;;;3.00;;
32292;SDS011;43233;48.608;8.838;2023-02-26T12:06:51;4.57;;;3.27;;
32292;SDS011;43233;48.608;8.838;2023-02-26T12:09:18;4.40;;;3.47;;
32292;SDS011;43233;48.608;8.838;2023-02-26T12:22:23;4.30;;;3.40;;
32292;SDS011;43233;48.608;8.838;2023-02-26T12:30:53;6.60;;;3.37;;
32292;SDS011;43233;48.608;8.838;2023-02-26T12:36:23;3.37;;;3.17;;
32292;SDS011;43233;48.608;8.838;2023-02-26T12:58:36;4.77;;;4.03;;
32292;SDS011;43233;48.608;8.838;2023-02-26T13:09:48;4.27;;;3.87;;
32292;SDS011;43233;48.608;8.838;2023-02-26T13:12:27;4.40;;;4.00;;
32292;SDS011;43233;48.608;8.838;2023-02-26T13:15:01;4.47;;;3.37;;
32292;SDS011;43233;48.608;8.838;2023-02-26T13:20:36;4.77;;;4.20;;
32292;SDS011;43233;48.608;8.838;2023-02-26T13:23:09;3.63;;;3.40;;
32292;SDS011;43233;48.608;8.838;2023-02-26T13:25:46;5.00;;;4.00;;
32292;SDS011;43233;48.608;8.838;2023-02-26T13:31:03;3.63;;;3.37;;
32292;SDS011;43233;48.608;8.838;2023-02-26T13:33:33;4.07;;;3.67;;
32292;SDS011;43233;48.608;8.838;2023-02-26T13:36:00;3.70;;;3.20;;
32292;SDS011;43233;48.608;8.838;2023-02-26T13:41:26;4.00;;;3.30;;
32292;SDS011;43233;48.608;8.838;2023-02-26T13:52:48;4.60;;;4.27;;
32292;SDS011;43233;48.608;8.838;2023-02-26T13:58:14;3.97;;;3.67;;
32292;SDS011;43233;48.608;8.838;2023-02-26T14:01:06;6.43;;;3.93;;
32292;SDS011;43233;48.608;8.838;2023-02-26T14:03:33;3.73;;;3.43;;
32292;SDS011;43233;48.608;8.838;2023-02-26T14:08:48;3.10;;;2.90;;
32292;SDS011;43233;48.608;8.838;2023-02-26T14:13:41;2.97;;;2.80;;
32292;SDS011;43233;48.608;8.838;2023-02-26T14:16:33;3.30;;;3.00;;
32292;SDS011;43233;48.608;8.838;2023-02-26T14:19:22;2.73;;;2.63;;
32292;SDS011;43233;48.608;8.838;2023-02-26T14:26:50;5.30;;;2.93;;
32292;SDS011;43233;48.608;8.838;2023-02-26T14:34:34;3.30;;;3.10;;
32292;SDS011;43233;48.608;8.838;2023-02-26T14:37:07;2.83;;;2.63;;
32292;SDS011;43233;48.608;8.838;2023-02-26T14:39:40;2.77;;;2.57;;
32292;SDS011;43233;48.608;8.838;2023-02-26T14:42:13;3.10;;;2.90;;
32292;SDS011;43233;48.608;8.838;2023-02-26T14:44:47;2.93;;;2.70;;
32292;SDS011;43233;48.608;8.838;2023-02-26T14:47:17;3.00;;;2.40;;
32292;SDS011;43233;48.608;8.838;2023-02-26T14:49:44;2.13;;;2.03;;
32292;SDS011;43233;48.608;8.838;2023-02-26T14:58:03;2.90;;;2.70;;
32292;SDS011;43233;48.608;8.838;2023-02-26T15:08:25;2.37;;;2.20;;
32292;SDS011;43233;48.608;8.838;2023-02-26T15:11:19;2.50;;;2.30;;
32292;SDS011;43233;48.608;8.838;2023-02-26T15:16:29;2.20;;;2.10;;
32292;SDS011;43233;48.608;8.838;2023-02-26T15:19:06;4.10;;;1.87;;
32292;SDS011;43233;48.608;8.838;2023-02-26T15:24:40;1.57;;;1.47;;
32292;SDS011;43233;48.608;8.838;2023-02-26T15:27:06;1.60;;;1.50;;
32292;SDS011;43233;48.608;8.838;2023-02-26T15:29:36;3.07;;;1.87;;
32292;SDS011;43233;48.608;8.838;2023-02-26T15:32:20;1.60;;;1.50;;
32292;SDS011;43233;48.608;8.838;2023-02-26T15:34:54;1.70;;;1.60;;
32292;SDS011;43233;48.608;8.838;2023-02-26T15:37:40;1.70;;;1.60;;
32292;SDS011;43233;48.608;8.838;2023-02-26T15:40:06;3.00;;;1.60;;
32292;SDS011;43233;48.608;8.838;2023-02-26T15:42:34;1.97;;;1.80;;
32292;SDS011;43233;48.608;8.838;2023-02-26T15:45:08;2.20;;;2.00;;
32292;SDS011;43233;48.608;8.838;2023-02-26T15:47:44;2.23;;;1.87;;
32292;SDS011;43233;48.608;8.838;2023-02-26T15:50:14;4.20;;;3.40;;
32292;SDS011;43233;48.608;8.838;2023-02-26T15:52:41;3.97;;;2.97;;
32292;SDS011;43233;48.608;8.838;2023-02-26T15:55:12;2.40;;;2.13;;
32292;SDS011;43233;48.608;8.838;2023-02-26T15:57:40;2.50;;;2.27;;
32292;SDS011;43233;48.608;8.838;2023-02-26T16:00:07;2.10;;;2.00;;
32292;SDS011;43233;48.608;8.838;2023-02-26T16:02:40;3.80;;;3.00;;
32292;SDS011;43233;48.608;8.838;2023-02-26T16:05:07;3.17;;;2.97;;
32292;SDS011;43233;48.608;8.838;2023-02-26T16:07:38;3.00;;;2.87;;
32292;SDS011;43233;48.608;8.838;2023-02-26T16:10:06;3.37;;;2.77;;
32292;SDS011;43233;48.608;8.838;2023-02-26T16:12:40;2.50;;;2.30;;
32292;SDS011;43233;48.608;8.838;2023-02-26T16:15:12;3.00;;;2.70;;
32292;SDS011;43233;48.608;8.838;2023-02-26T16:17:42;5.30;;;2.70;;
32292;SDS011;43233;48.608;8.838;2023-02-26T16:20:14;6.27;;;3.13;;
32292;SDS011;43233;48.608;8.838;2023-02-26T16:22:43;3.00;;;2.80;;
32292;SDS011;43233;48.608;8.838;2023-02-26T16:25:34;3.23;;;2.93;;
32292;SDS011;43233;48.608;8.838;2023-02-26T16:28:05;3.40;;;3.20;;
32292;SDS011;43233;48.608;8.838;2023-02-26T16:30:56;3.30;;;3.00;;
32292;SDS011;43233;48.608;8.838;2023-02-26T16:33:24;2.87;;;2.53;;
32292;SDS011;43233;48.608;8.838;2023-02-26T16:41:11;3.83;;;3.53;;
32292;SDS011;43233;48.608;8.838;2023-02-26T16:46:16;3.33;;;3.13;;
32292;SDS011;43233;48.608;8.838;2023-02-26T16:51:58;2.63;;;2.53;;
32292;SDS011;43233;48.608;8.838;2023-02-26T16:56:59;4.23;;;3.83;;
32292;SDS011;43233;48.608;8.838;2023-02-26T16:59:30;3.07;;;2.87;;
32292;SDS011;43233;48.608;8.838;2023-02-26T17:04:49;3.70;;;3.40;;
32292;SDS011;43233;48.608;8.838;2023-02-26T17:07:22;3.83;;;3.40;;
32292;SDS011;43233;48.608;8.838;2023-02-26T17:09:50;3.70;;;3.40;;
32292;SDS011;43233;48.608;8.838;2023-02-26T17:12:27;4.33;;;3.93;;
32292;SDS011;43233;48.608;8.838;2023-02-26T17:15:10;3.67;;;2.90;;
32292;SDS011;43233;48.608;8.838;2023-02-26T17:17:52;3.10;;;2.67;;
32292;SDS011;43233;48.608;8.838;2023-02-26T17:20:25;5.40;;;2.90;;
32292;SDS011;43233;48.608;8.838;2023-02-26T17:22:52;3.10;;;2.90;;
32292;SDS011;43233;48.608;8.838;2023-02-26T17:25:19;3.10;;;2.90;;
32292;SDS011;43233;48.608;8.838;2023-02-26T17:27:46;3.37;;;3.17;;
32292;SDS011;43233;48.608;8.838;2023-02-26T17:30:19;3.60;;;3.40;;
32292;SDS011;43233;48.608;8.838;2023-02-26T17:32:48;2.93;;;2.73;;
32292;SDS011;43233;48.608;8.838;2023-02-26T17:35:15;2.70;;;2.50;;
32292;SDS011;43233;48.608;8.838;2023-02-26T17:37:42;3.00;;;2.80;;
32292;SDS011;43233;48.608;8.838;2023-02-26T17:42:46;4.03;;;3.73;;
32292;SDS011;43233;48.608;8.838;2023-02-26T17:45:12;10.63;;;5.30;;
32292;SDS011;43233;48.608;8.838;2023-02-26T17:47:39;4.37;;;4.03;;
32292;SDS011;43233;48.608;8.838;2023-02-26T17:50:09;5.07;;;4.57;;
32292;SDS011;43233;48.608;8.838;2023-02-26T17:53:04;4.77;;;3.40;;
32292;SDS011;43233;48.608;8.838;2023-02-26T17:55:31;6.90;;;3.03;;
32292;SDS011;43233;48.608;8.838;2023-02-26T17:57:59;4.40;;;4.03;;
32292;SDS011;43233;48.608;8.838;2023-02-26T18:00:25;2.70;;;2.50;;
32292;SDS011;43233;48.608;8.838;2023-02-26T18:02:51;4.97;;;3.83;;
32292;SDS011;43233;48.608;8.838;2023-02-26T18:05:17;3.50;;;3.10;;
32292;SDS011;43233;48.608;8.838;2023-02-26T18:07:43;3.73;;;3.40;;
32292;SDS011;43233;48.608;8.838;2023-02-26T18:10:16;3.90;;;3.60;;
32292;SDS011;43233;48.608;8.838;2023-02-26T18:12:46;3.97;;;3.57;;
32292;SDS011;43233;48.608;8.838;2023-02-26T18:15:12;3.33;;;3.13;;
32292;SDS011;43233;48.608;8.838;2023-02-26T18:17:38;5.70;;;3.70;;
32292;SDS011;43233;48.608;8.838;2023-02-26T18:20:04;3.10;;;2.90;;